Nearby METAR Reports

 

KALB - Albany, New York, USA
Distance from station: E 47mi, 75km
Updated: Tue, 19-Feb-2019 1:51am EST
Few Clouds
Few Clouds
 Wind from W
Wind: W 3 mph , 6 km/h
Temperature: 9°F , -13°C
Dew Point: 3°F , -16°C
Humidity: 78%
Barometer: 30.40 inHg , 1029.5 hPa
Clouds: Few Clouds
Visibility: 10 miles , 16 km
Cloud details: Few Clouds 3000 ft
2019/02/19 06:51 KALB 190651Z 28003KT 10SM FEW030 M13/M16 A3040 RMK AO2 SLP300 T11331161
KSLK - Saranac Lake, New York, USA
Distance from station: N 110mi, 177km
Updated: Tue, 19-Feb-2019 1:51am EST
Clear
Clear
 Wind from calm
Wind: Calm
Temperature: -4°F , -20°C
Dew Point: -8°F , -22°C
Humidity: 84%
Barometer: 30.25 inHg , 1024.4 hPa
Clouds: Clear
Visibility: 10 miles , 16 km
2019/02/19 06:51 KSLK 190651Z AUTO 00000KT 10SM CLR M20/M22 A3025 RMK AO2 SLP284 T12001217
 
KSYR - Syracuse, New York, USA
Distance from station: W 73mi, 117km
Updated: Tue, 19-Feb-2019 1:54am EST
Partly cloudy
Partly cloudy
 Wind from WNW
Wind: WNW 6 mph , 9 km/h
Temperature: 12°F , -11°C
Wind Chill: 2°F , -17°C
Dew Point: 3°F , -16°C
Humidity: 67%
Barometer: 30.46 inHg , 1031.5 hPa
Clouds: Partly cloudy
Visibility: 10 miles , 16 km
Cloud details: Few Clouds 2200 ft
Partly cloudy 20000 ft
2019/02/19 06:54 KSYR 190654Z 29005KT 10SM FEW022 SCT200 M11/M16 A3046 RMK AO2 SLP321 T11111156
KBGM - Binghamton, New York, USA
Distance from station: SW 78mi, 126km
Updated: Tue, 19-Feb-2019 2:09am EST
Overcast
Overcast
 Wind from WNW
Wind: WNW 7 mph , 11 km/h
Temperature: 10°F , -12°C
Wind Chill: -1°F , -18°C
Dew Point: 9°F , -13°C
Humidity: 92%
Barometer: 30.35 inHg , 1027.8 hPa
Clouds: Overcast
Visibility: 7 miles , 11 km
Cloud details: Overcast 1300 ft
2019/02/19 07:09 KBGM 190709Z AUTO 30006KT 7SM OVC013 M12/M13 A3035 RMK AO2 T11171133
 
KRME - Rome, New York, USA
Distance from station: WNW 43mi, 69km
Updated: Tue, 19-Feb-2019 1:53am EST
Clear
Clear
 Wind from calm
Wind: Calm
Temperature: 1°F , -17°C
Dew Point: -0°F , -18°C
Humidity: 92%
Barometer: 30.45 inHg , 1031.2 hPa
Clouds: Clear
Visibility: 10 miles , 16 km
2019/02/19 06:53 KRME 190653Z AUTO 00000KT 10SM CLR M17/M18 A3045 RMK AO2 SLP321 T11671178
KJFK - New York, New York, USA
Distance from station: SSE 159mi, 256km
Updated: Tue, 19-Feb-2019 1:51am EST
Few Clouds
Few Clouds
 Wind from NW
Wind: NW 20 mph , 31 km/h
Temperature: 25°F , -4°C
Wind Chill: 11°F , -12°C
Dew Point: 10°F , -12°C
Humidity: 54%
Barometer: 30.42 inHg , 1030.1 hPa
Clouds: Few Clouds
Visibility: 10 miles , 16 km
Cloud details: Few Clouds 4500 ft
Few Clouds 25000 ft
2019/02/19 06:51 KJFK 190651Z 32017KT 10SM FEW045 FEW250 M04/M12 A3042 RMK AO2 SLP300 T10391117 $
 
KROC - Rochester, New York, USA
Distance from station: W 150mi, 242km
Updated: Tue, 19-Feb-2019 1:54am EST
Few Clouds
Few Clouds
 Wind from WSW
Wind: WSW 9 mph , 15 km/h
Temperature: 9°F , -13°C
Wind Chill: -4°F , -20°C
Dew Point: 3°F , -16°C
Humidity: 78%
Barometer: 30.50 inHg , 1032.8 hPa
Clouds: Few Clouds
Visibility: 9 miles , 14 km
Cloud details: Few Clouds 2400 ft
2019/02/19 06:54 KROC 190654Z 25008KT 9SM FEW024 M13/M16 A3050 RMK AO2 SNE49 SLP343 P0000 T11281156
KART - Watertown, New York, USA
Distance from station: NNW 103mi, 166km
Updated: Tue, 19-Feb-2019 1:56am EST
Clear
Clear
 Wind from N
Wind: N 3 mph , 6 km/h
Temperature: -8°F , -22°C
Dew Point: -9°F , -23°C
Humidity: 92%
Barometer: 30.48 inHg , 1032.2 hPa
Clouds: Clear
Visibility: 10 miles , 16 km
2019/02/19 06:56 KART 190656Z AUTO 35003KT 10SM CLR M22/M23 A3048 RMK AO2 SLP335 T12221233
 
KELM - Elmira-Corning, New York, USA
Distance from station: SSW 121mi, 195km
Updated: Tue, 19-Feb-2019 1:53am EST
Overcast
Overcast
 Wind from WNW
Wind: WNW 3 mph , 6 km/h
Temperature: 18°F , -8°C
Dew Point: 10°F , -12°C
Humidity: 73%
Barometer: 30.44 inHg , 1030.8 hPa
Clouds: Overcast
Visibility: 9 miles , 14 km
Cloud details: Overcast 2200 ft
2019/02/19 06:53 KELM 190653Z AUTO 30003KT 9SM OVC022 M08/M12 A3044 RMK AO2 SNE11 SLP322 P0000 T10781122
KJHW - Jamestown, New York, USA
Distance from station: SW 238mi, 383km
Updated: Tue, 19-Feb-2019 1:56am EST
Clear
Clear
 Wind from NW
Wind: NW 8 mph , 13 km/h
Temperature: 7°F , -14°C
Wind Chill: -6°F , -21°C
Dew Point: 3°F , -16°C
Humidity: 85%
Barometer: 30.43 inHg , 1030.5 hPa
Clouds: Clear
Visibility: 10 miles , 16 km
2019/02/19 06:56 KJHW 190656Z AUTO 32007KT 10SM CLR M14/M16 A3043 RMK AO2 SLP344 T11441161 FZRANO
 
KMSS - Massena, New York, USA
Distance from station: N 141mi, 232km
Updated: Tue, 19-Feb-2019 1:53am EST
Clear
Clear
 Wind from W
Wind: W 6 mph , 9 km/h
Temperature: 3°F , -16°C
Wind Chill: -8°F , -22°C
Dew Point: -2°F , -19°C
Humidity: 78%
Barometer: 30.46 inHg , 1031.5 hPa
Clouds: Clear
Visibility: 10 miles , 16 km
2019/02/19 06:53 KMSS 190653Z AUTO 28005KT 10SM CLR M16/M19 A3046 RMK AO2 SLP325 T11611194
KBUF - Buffalo, New York, USA
Distance from station: W 204mi, 328km
Updated: Tue, 19-Feb-2019 1:54am EST
Few Clouds
Few Clouds
 Wind from W
Wind: W 5 mph , 7 km/h
Temperature: 12°F , -11°C
Wind Chill: 4°F , -16°C
Dew Point: 5°F , -15°C
Humidity: 73%
Barometer: 30.51 inHg , 1033.2 hPa
Clouds: Few Clouds
Visibility: 10 miles , 16 km
Cloud details: Few Clouds 2000 ft
2019/02/19 06:54 KBUF 190654Z 28004KT 10SM FEW020 M11/M15 A3051 RMK AO2 SLP347 T11111150